sensor_id;sensor_type;location;lat;lon;timestamp;P1;durP1;ratioP1;P2;durP2;ratioP2
86267;SDS011;76928;48.002;8.130;2024-02-26T18:54:10;17.88;;;3.35;;
86267;SDS011;76928;48.002;8.130;2024-02-26T18:56:36;7.68;;;2.70;;
86267;SDS011;76928;48.002;8.130;2024-02-26T19:00:02;10.77;;;2.58;;
86267;SDS011;76928;48.002;8.130;2024-02-26T19:02:30;6.63;;;2.55;;
86267;SDS011;76928;48.002;8.130;2024-02-26T19:04:57;6.68;;;2.33;;
86267;SDS011;76928;48.002;8.130;2024-02-26T19:07:24;5.45;;;2.38;;
86267;SDS011;76928;48.002;8.130;2024-02-26T19:09:51;6.43;;;2.15;;
86267;SDS011;76928;48.002;8.130;2024-02-26T19:12:19;5.57;;;2.30;;
86267;SDS011;76928;48.002;8.130;2024-02-26T19:14:48;8.55;;;2.63;;
86267;SDS011;76928;48.002;8.130;2024-02-26T19:17:14;5.65;;;2.05;;
86267;SDS011;76928;48.002;8.130;2024-02-26T19:19:42;6.38;;;2.13;;
86267;SDS011;76928;48.002;8.130;2024-02-26T19:22:09;5.13;;;2.17;;
86267;SDS011;76928;48.002;8.130;2024-02-26T19:24:36;5.63;;;1.77;;
86267;SDS011;76928;48.002;8.130;2024-02-26T19:27:03;5.22;;;1.75;;
86267;SDS011;76928;48.002;8.130;2024-02-26T19:29:30;6.20;;;2.00;;
86267;SDS011;76928;48.002;8.130;2024-02-26T19:31:57;3.72;;;1.85;;
86267;SDS011;76928;48.002;8.130;2024-02-26T19:34:24;6.22;;;2.03;;
86267;SDS011;76928;48.002;8.130;2024-02-26T19:36:50;3.22;;;1.50;;
86267;SDS011;76928;48.002;8.130;2024-02-26T19:39:17;3.97;;;1.58;;
86267;SDS011;76928;48.002;8.130;2024-02-26T19:41:44;3.67;;;1.92;;
86267;SDS011;76928;48.002;8.130;2024-02-26T19:44:11;5.03;;;1.55;;
86267;SDS011;76928;48.002;8.130;2024-02-26T19:46:39;4.60;;;1.73;;
86267;SDS011;76928;48.002;8.130;2024-02-26T19:49:06;3.90;;;1.63;;
86267;SDS011;76928;48.002;8.130;2024-02-26T19:51:33;8.00;;;2.08;;
86267;SDS011;76928;48.002;8.130;2024-02-26T19:54:00;3.83;;;1.90;;
86267;SDS011;76928;48.002;8.130;2024-02-26T19:56:27;4.72;;;1.98;;
86267;SDS011;76928;48.002;8.130;2024-02-26T19:58:54;3.30;;;1.50;;
86267;SDS011;76928;48.002;8.130;2024-02-26T20:01:22;3.85;;;1.30;;
86267;SDS011;76928;48.002;8.130;2024-02-26T20:03:49;3.28;;;1.40;;
86267;SDS011;76928;48.002;8.130;2024-02-26T20:06:16;5.25;;;1.88;;
86267;SDS011;76928;48.002;8.130;2024-02-26T20:08:43;4.20;;;1.60;;
86267;SDS011;76928;48.002;8.130;2024-02-26T20:11:13;3.38;;;1.20;;
86267;SDS011;76928;48.002;8.130;2024-02-26T20:13:42;4.65;;;1.83;;
86267;SDS011;76928;48.002;8.130;2024-02-26T20:16:09;3.03;;;1.48;;
86267;SDS011;76928;48.002;8.130;2024-02-26T20:18:38;3.20;;;1.60;;
86267;SDS011;76928;48.002;8.130;2024-02-26T20:21:04;4.00;;;1.10;;
86267;SDS011;76928;48.002;8.130;2024-02-26T20:23:31;3.30;;;1.63;;
86267;SDS011;76928;48.002;8.130;2024-02-26T20:25:58;4.22;;;1.58;;
86267;SDS011;76928;48.002;8.130;2024-02-26T20:28:27;3.25;;;1.65;;
86267;SDS011;76928;48.002;8.130;2024-02-26T20:30:55;2.80;;;1.35;;
86267;SDS011;76928;48.002;8.130;2024-02-26T20:33:22;2.03;;;1.30;;
86267;SDS011;76928;48.002;8.130;2024-02-26T20:35:50;4.25;;;1.60;;
86267;SDS011;76928;48.002;8.130;2024-02-26T20:38:17;3.20;;;1.52;;
86267;SDS011;76928;48.002;8.130;2024-02-26T20:40:46;1.67;;;1.30;;
86267;SDS011;76928;48.002;8.130;2024-02-26T20:43:13;4.15;;;1.30;;
86267;SDS011;76928;48.002;8.130;2024-02-26T20:45:42;2.08;;;1.38;;
86267;SDS011;76928;48.002;8.130;2024-02-26T20:48:15;4.10;;;1.33;;
86267;SDS011;76928;48.002;8.130;2024-02-26T20:50:42;1.77;;;1.20;;
86267;SDS011;76928;48.002;8.130;2024-02-26T20:53:09;2.13;;;1.33;;
86267;SDS011;76928;48.002;8.130;2024-02-26T20:55:37;1.75;;;1.17;;
86267;SDS011;76928;48.002;8.130;2024-02-26T20:58:06;1.73;;;1.10;;
86267;SDS011;76928;48.002;8.130;2024-02-26T21:00:34;2.45;;;1.30;;
86267;SDS011;76928;48.002;8.130;2024-02-26T21:03:01;1.73;;;1.15;;
86267;SDS011;76928;48.002;8.130;2024-02-26T21:05:34;3.47;;;1.40;;
86267;SDS011;76928;48.002;8.130;2024-02-26T21:08:02;2.25;;;1.38;;
86267;SDS011;76928;48.002;8.130;2024-02-26T21:10:30;1.90;;;1.27;;
86267;SDS011;76928;48.002;8.130;2024-02-26T21:12:57;1.23;;;1.10;;
86267;SDS011;76928;48.002;8.130;2024-02-26T21:15:26;3.30;;;1.30;;
86267;SDS011;76928;48.002;8.130;2024-02-26T21:17:53;2.83;;;1.33;;
86267;SDS011;76928;48.002;8.130;2024-02-26T21:20:20;2.20;;;1.30;;
86267;SDS011;76928;48.002;8.130;2024-02-26T21:22:49;2.42;;;1.30;;
86267;SDS011;76928;48.002;8.130;2024-02-26T21:25:17;1.70;;;1.10;;
86267;SDS011;76928;48.002;8.130;2024-02-26T21:27:44;3.50;;;1.40;;
86267;SDS011;76928;48.002;8.130;2024-02-26T21:30:11;2.40;;;1.27;;
86267;SDS011;76928;48.002;8.130;2024-02-26T21:32:38;2.05;;;1.30;;
86267;SDS011;76928;48.002;8.130;2024-02-26T21:35:05;3.45;;;1.30;;
86267;SDS011;76928;48.002;8.130;2024-02-26T21:37:34;2.08;;;1.42;;
86267;SDS011;76928;48.002;8.130;2024-02-26T21:40:01;1.48;;;1.05;;
86267;SDS011;76928;48.002;8.130;2024-02-26T21:42:29;2.42;;;1.35;;
86267;SDS011;76928;48.002;8.130;2024-02-26T21:44:55;1.75;;;1.23;;
86267;SDS011;76928;48.002;8.130;2024-02-26T21:47:23;1.85;;;1.30;;
86267;SDS011;76928;48.002;8.130;2024-02-26T21:49:50;2.33;;;1.25;;
86267;SDS011;76928;48.002;8.130;2024-02-26T21:52:16;1.80;;;1.20;;
86267;SDS011;76928;48.002;8.130;2024-02-26T21:54:47;1.45;;;1.20;;
86267;SDS011;76928;48.002;8.130;2024-02-26T21:57:15;2.25;;;1.15;;
86267;SDS011;76928;48.002;8.130;2024-02-26T21:59:43;1.42;;;1.15;;
86267;SDS011;76928;48.002;8.130;2024-02-26T22:02:11;1.52;;;1.15;;
86267;SDS011;76928;48.002;8.130;2024-02-26T22:04:38;1.38;;;1.17;;
86267;SDS011;76928;48.002;8.130;2024-02-26T22:07:05;2.47;;;1.20;;
86267;SDS011;76928;48.002;8.130;2024-02-26T22:09:31;1.67;;;1.30;;
86267;SDS011;76928;48.002;8.130;2024-02-26T22:11:59;2.17;;;1.23;;
86267;SDS011;76928;48.002;8.130;2024-02-26T22:14:26;1.15;;;1.00;;
86267;SDS011;76928;48.002;8.130;2024-02-26T22:16:53;2.10;;;1.30;;
86267;SDS011;76928;48.002;8.130;2024-02-26T22:19:19;1.77;;;1.08;;
86267;SDS011;76928;48.002;8.130;2024-02-26T22:21:46;2.08;;;1.30;;
86267;SDS011;76928;48.002;8.130;2024-02-26T22:24:13;2.15;;;1.20;;
86267;SDS011;76928;48.002;8.130;2024-02-26T22:26:40;1.98;;;1.45;;
86267;SDS011;76928;48.002;8.130;2024-02-26T22:29:10;2.30;;;1.30;;
86267;SDS011;76928;48.002;8.130;2024-02-26T22:31:37;2.13;;;1.40;;
86267;SDS011;76928;48.002;8.130;2024-02-26T22:34:04;2.75;;;1.10;;
86267;SDS011;76928;48.002;8.130;2024-02-26T22:36:31;2.28;;;1.15;;
86267;SDS011;76928;48.002;8.130;2024-02-26T22:39:03;1.53;;;1.43;;
86267;SDS011;76928;48.002;8.130;2024-02-26T22:41:30;1.70;;;1.30;;
86267;SDS011;76928;48.002;8.130;2024-02-26T22:43:57;1.73;;;1.25;;
86267;SDS011;76928;48.002;8.130;2024-02-26T22:46:24;1.48;;;1.38;;
86267;SDS011;76928;48.002;8.130;2024-02-26T22:48:51;1.58;;;1.20;;
86267;SDS011;76928;48.002;8.130;2024-02-26T22:51:18;1.38;;;1.20;;
86267;SDS011;76928;48.002;8.130;2024-02-26T22:53:44;1.30;;;1.00;;
86267;SDS011;76928;48.002;8.130;2024-02-26T22:56:11;1.17;;;0.98;;
86267;SDS011;76928;48.002;8.130;2024-02-26T22:58:38;2.15;;;1.20;;
86267;SDS011;76928;48.002;8.130;2024-02-26T23:01:05;1.35;;;1.02;;
86267;SDS011;76928;48.002;8.130;2024-02-26T23:03:33;1.50;;;1.05;;
86267;SDS011;76928;48.002;8.130;2024-02-26T23:05:59;1.95;;;1.20;;
86267;SDS011;76928;48.002;8.130;2024-02-26T23:08:26;1.80;;;1.10;;
86267;SDS011;76928;48.002;8.130;2024-02-26T23:10:53;1.42;;;1.10;;
86267;SDS011;76928;48.002;8.130;2024-02-26T23:13:20;1.70;;;1.10;;
86267;SDS011;76928;48.002;8.130;2024-02-26T23:15:47;2.03;;;1.00;;
86267;SDS011;76928;48.002;8.130;2024-02-26T23:18:14;1.58;;;1.25;;
86267;SDS011;76928;48.002;8.130;2024-02-26T23:20:41;1.30;;;1.20;;
86267;SDS011;76928;48.002;8.130;2024-02-26T23:23:08;1.20;;;1.10;;
86267;SDS011;76928;48.002;8.130;2024-02-26T23:25:34;1.63;;;1.10;;
86267;SDS011;76928;48.002;8.130;2024-02-26T23:28:01;2.03;;;1.40;;
86267;SDS011;76928;48.002;8.130;2024-02-26T23:30:29;1.83;;;1.15;;
86267;SDS011;76928;48.002;8.130;2024-02-26T23:32:55;1.55;;;1.05;;
86267;SDS011;76928;48.002;8.130;2024-02-26T23:35:22;1.25;;;1.00;;
86267;SDS011;76928;48.002;8.130;2024-02-26T23:37:49;1.40;;;1.30;;
86267;SDS011;76928;48.002;8.130;2024-02-26T23:40:16;2.28;;;1.23;;
86267;SDS011;76928;48.002;8.130;2024-02-26T23:42:43;1.95;;;1.00;;
86267;SDS011;76928;48.002;8.130;2024-02-26T23:45:10;1.45;;;1.00;;
86267;SDS011;76928;48.002;8.130;2024-02-26T23:47:37;2.30;;;1.23;;
86267;SDS011;76928;48.002;8.130;2024-02-26T23:50:04;1.80;;;0.90;;
86267;SDS011;76928;48.002;8.130;2024-02-26T23:52:31;1.33;;;1.17;;
86267;SDS011;76928;48.002;8.130;2024-02-26T23:54:58;1.27;;;0.90;;
86267;SDS011;76928;48.002;8.130;2024-02-26T23:57:25;1.20;;;1.10;;
86267;SDS011;76928;48.002;8.130;2024-02-26T23:59:52;1.40;;;1.23;;
